Time;durP1;ratioP1;P1;durP2;ratioP2;P2;SDS_P1;SDS_P2;PMS_P1;PMS_P2;Temp;Humidity;BMP_temperature;BMP_pressure;BME280_temperature;BME280_humidity;BME280_pressure;Samples;Min_cycle;Max_cycle;Signal;HPM_P1;HPM_P2
2023/12/31 00:01:42;;;;;;;14.30;7.30;;;4.50;99.90;;;;;;4968589;28;20492;-70
2023/12/31 00:04:10;;;;;;;14.40;7.37;;;4.50;99.90;;;;;;4959657;28;21307;-70
2023/12/31 00:06:38;;;;;;;18.03;8.83;;;4.40;99.90;;;;;;4978070;28;20444;-68
2023/12/31 00:09:06;;;;;;;16.67;8.50;;;4.30;99.90;;;;;;4981832;28;20447;-67
2023/12/31 00:11:36;;;;;;;14.97;7.93;;;4.20;99.90;;;;;;4969155;28;20484;-68
2023/12/31 00:14:04;;;;;;;16.63;8.23;;;4.10;99.90;;;;;;4963825;28;20453;-68
2023/12/31 00:16:32;;;;;;;14.10;7.77;;;3.90;99.90;;;;;;4963524;28;20504;-68
2023/12/31 00:19:00;;;;;;;13.77;8.00;;;3.90;99.90;;;;;;4958554;28;20454;-68
2023/12/31 00:21:28;;;;;;;14.97;7.60;;;3.90;99.90;;;;;;4963750;28;20548;-68
2023/12/31 00:23:56;;;;;;;16.23;8.30;;;3.90;99.90;;;;;;4963704;28;20448;-69
2023/12/31 00:26:24;;;;;;;16.63;8.60;;;3.80;99.90;;;;;;4956579;28;20448;-68
2023/12/31 00:28:54;;;;;;;15.17;7.63;;;3.70;99.90;;;;;;4964736;28;20449;-68
2023/12/31 00:31:22;;;;;;;15.63;7.50;;;3.60;99.90;;;;;;4964180;28;20465;-69
2023/12/31 00:33:56;;;;;;;17.03;8.93;;;3.60;99.90;;;;;;4963063;28;20451;-67
2023/12/31 00:36:24;;;;;;;14.73;8.00;;;3.50;99.90;;;;;;4946861;28;20485;-69
2023/12/31 00:38:53;;;;;;;16.90;7.97;;;3.60;99.90;;;;;;4945949;28;20504;-69
2023/12/31 00:41:21;;;;;;;17.50;8.00;;;3.50;99.90;;;;;;4954188;28;21044;-68
2023/12/31 00:43:49;;;;;;;13.57;7.57;;;3.40;99.90;;;;;;4966113;28;20530;-69
2023/12/31 00:46:18;;;;;;;13.80;7.97;;;3.30;99.90;;;;;;4969393;28;21189;-68
2023/12/31 00:48:47;;;;;;;14.07;7.67;;;3.30;99.90;;;;;;4967027;28;20451;-69
2023/12/31 00:51:15;;;;;;;16.40;7.50;;;3.30;99.90;;;;;;4966084;28;20459;-68
2023/12/31 00:53:43;;;;;;;16.13;7.27;;;3.30;99.90;;;;;;4982730;28;20540;-68
2023/12/31 00:56:11;;;;;;;13.80;7.23;;;3.20;99.90;;;;;;4980533;28;20443;-68
2023/12/31 00:58:39;;;;;;;16.10;7.13;;;3.20;99.90;;;;;;4976915;28;20542;-69
2023/12/31 01:01:07;;;;;;;14.00;7.10;;;3.20;99.90;;;;;;4983833;28;21045;-69
2023/12/31 01:03:36;;;;;;;15.13;6.73;;;3.20;99.90;;;;;;4972136;28;20495;-68
2023/12/31 01:06:05;;;;;;;12.50;6.47;;;3.10;99.90;;;;;;4972026;28;20487;-69
2023/12/31 01:08:33;;;;;;;17.27;6.97;;;3.10;99.90;;;;;;4974165;28;20595;-69
2023/12/31 01:11:02;;;;;;;14.93;6.70;;;3.10;99.90;;;;;;4965702;28;20986;-70
2023/12/31 01:13:30;;;;;;;13.97;6.30;;;3.00;99.90;;;;;;4967339;28;20436;-69
2023/12/31 01:15:58;;;;;;;13.60;6.80;;;3.10;99.90;;;;;;4960374;28;20443;-67
2023/12/31 01:18:26;;;;;;;16.37;6.90;;;3.10;99.90;;;;;;4972914;28;20486;-67
2023/12/31 01:20:56;;;;;;;14.57;7.23;;;3.00;99.90;;;;;;4973307;28;20471;-68
2023/12/31 01:23:24;;;;;;;16.97;7.50;;;3.00;99.90;;;;;;4971150;28;20448;-67
2023/12/31 01:25:51;;;;;;;16.40;7.30;;;3.10;99.90;;;;;;4969951;28;20456;-68
2023/12/31 01:28:19;;;;;;;14.77;8.10;;;3.10;99.90;;;;;;4969556;28;20447;-68
2023/12/31 01:30:47;;;;;;;15.50;7.00;;;3.20;99.90;;;;;;4969611;28;20527;-68
2023/12/31 01:33:15;;;;;;;15.63;7.20;;;3.20;99.90;;;;;;4969959;28;21021;-68
2023/12/31 01:35:43;;;;;;;16.07;6.80;;;3.30;99.90;;;;;;4969979;28;20506;-68
2023/12/31 01:38:13;;;;;;;15.00;6.30;;;3.30;99.90;;;;;;4968756;28;20479;-68
2023/12/31 01:40:41;;;;;;;12.93;7.00;;;3.20;99.90;;;;;;4985372;28;20477;-68
2023/12/31 01:43:09;;;;;;;15.13;7.00;;;3.00;99.90;;;;;;4987909;28;20447;-68
2023/12/31 01:45:37;;;;;;;13.63;7.00;;;3.00;99.90;;;;;;4982011;28;20452;-68
2023/12/31 01:48:06;;;;;;;14.53;7.67;;;3.00;99.90;;;;;;4980411;28;20531;-68
2023/12/31 01:50:34;;;;;;;17.90;7.20;;;2.90;99.90;;;;;;4969389;28;20832;-68
2023/12/31 01:53:03;;;;;;;16.23;6.77;;;2.90;99.90;;;;;;4969444;28;20452;-68
2023/12/31 01:55:33;;;;;;;13.93;6.87;;;2.90;99.90;;;;;;4967740;28;20448;-67
2023/12/31 01:58:02;;;;;;;16.20;7.23;;;2.90;99.90;;;;;;4969586;28;20487;-68
2023/12/31 02:00:30;;;;;;;13.70;6.63;;;2.80;99.90;;;;;;4969358;28;20495;-68
2023/12/31 02:03:00;;;;;;;13.23;6.40;;;2.70;99.90;;;;;;4967857;28;20930;-68
2023/12/31 02:05:28;;;;;;;13.77;6.47;;;2.60;99.90;;;;;;4980115;28;20442;-68
2023/12/31 02:07:56;;;;;;;15.53;6.47;;;2.50;99.90;;;;;;4977693;28;20457;-68
2023/12/31 02:10:24;;;;;;;15.43;6.80;;;2.50;99.90;;;;;;4969302;28;20518;-69
2023/12/31 02:12:54;;;;;;;13.87;6.90;;;2.50;99.90;;;;;;4967355;28;20690;-68
2023/12/31 02:15:40;;;;;;;15.77;7.30;;;2.50;99.90;;;;;;4963301;28;20546;-68
2023/12/31 02:18:08;;;;;;;13.13;6.73;;;2.30;99.90;;;;;;4969029;28;20573;-68
2023/12/31 02:20:37;;;;;;;12.07;5.77;;;2.40;99.90;;;;;;4968584;28;20557;-68
2023/12/31 02:23:05;;;;;;;12.47;6.17;;;2.30;99.90;;;;;;4968912;28;20559;-68
2023/12/31 02:25:38;;;;;;;12.50;5.90;;;2.40;99.90;;;;;;4968333;28;20522;-69
2023/12/31 02:28:12;;;;;;;15.00;7.57;;;2.50;99.90;;;;;;4961884;28;20495;-67
2023/12/31 02:30:40;;;;;;;12.90;6.30;;;2.60;99.90;;;;;;4968625;28;20467;-68
2023/12/31 02:33:08;;;;;;;14.13;6.73;;;2.40;99.90;;;;;;4968551;28;20463;-69
2023/12/31 02:35:36;;;;;;;12.17;5.60;;;2.40;99.90;;;;;;4967281;28;20547;-69
2023/12/31 02:38:04;;;;;;;14.70;7.37;;;2.30;99.90;;;;;;4968310;28;20569;-68
2023/12/31 02:40:32;;;;;;;18.10;7.97;;;2.30;99.90;;;;;;4961703;28;20471;-68
2023/12/31 02:43:00;;;;;;;17.90;8.70;;;2.30;99.90;;;;;;4959755;28;20462;-68
2023/12/31 02:45:29;;;;;;;15.20;8.53;;;2.40;99.90;;;;;;4968414;28;20963;-68
2023/12/31 02:47:57;;;;;;;16.03;8.37;;;2.50;99.90;;;;;;4968035;28;20440;-68
2023/12/31 02:50:25;;;;;;;17.90;9.20;;;2.50;99.90;;;;;;4967759;28;20462;-68
2023/12/31 02:52:54;;;;;;;17.30;8.60;;;2.60;99.90;;;;;;4961558;28;20465;-68
2023/12/31 02:55:22;;;;;;;18.17;8.70;;;2.70;99.90;;;;;;4967296;28;20444;-68
2023/12/31 02:57:50;;;;;;;15.60;8.03;;;2.70;99.90;;;;;;4968378;28;20506;-68
2023/12/31 03:00:18;;;;;;;17.00;8.17;;;2.80;99.90;;;;;;4970257;28;20599;-68
2023/12/31 03:02:47;;;;;;;16.53;8.40;;;2.90;99.90;;;;;;4968078;28;20973;-69
2023/12/31 03:05:15;;;;;;;13.73;7.43;;;3.10;99.90;;;;;;4967099;28;20586;-67
2023/12/31 03:07:43;;;;;;;15.50;8.43;;;3.20;99.90;;;;;;4966667;28;20440;-69
2023/12/31 03:10:11;;;;;;;15.13;8.10;;;3.30;99.90;;;;;;4962751;28;20473;-68
2023/12/31 03:12:39;;;;;;;16.03;8.47;;;3.30;99.90;;;;;;4967873;28;20485;-67
2023/12/31 03:15:09;;;;;;;17.17;8.03;;;3.40;99.90;;;;;;4967941;28;20476;-68
2023/12/31 03:17:37;;;;;;;16.03;8.00;;;3.50;99.90;;;;;;4967529;28;20542;-68
2023/12/31 03:20:08;;;;;;;14.80;7.90;;;3.50;99.90;;;;;;4967101;28;20498;-68
2023/12/31 03:22:36;;;;;;;15.40;7.60;;;3.60;99.90;;;;;;4962624;28;20472;-67
2023/12/31 03:25:10;;;;;;;16.87;7.90;;;3.70;99.90;;;;;;4968078;28;20547;-69
2023/12/31 03:27:38;;;;;;;15.10;7.53;;;3.70;99.90;;;;;;4967395;28;20487;-69
2023/12/31 03:30:08;;;;;;;16.17;8.20;;;3.60;99.90;;;;;;4967126;28;20478;-68
2023/12/31 03:32:36;;;;;;;14.83;7.90;;;3.60;99.90;;;;;;4973236;28;20470;-68
2023/12/31 03:35:04;;;;;;;15.53;8.53;;;3.80;99.90;;;;;;4967787;28;20465;-68
2023/12/31 03:37:34;;;;;;;15.00;6.80;;;3.90;99.90;;;;;;4968902;28;20448;-68
2023/12/31 03:40:03;;;;;;;14.50;7.50;;;4.00;99.90;;;;;;4967660;28;20468;-68
2023/12/31 03:42:31;;;;;;;13.43;6.33;;;4.20;99.90;;;;;;4966291;28;20448;-68
2023/12/31 03:44:59;;;;;;;16.17;7.60;;;4.20;99.90;;;;;;4967809;28;20496;-68
2023/12/31 03:47:27;;;;;;;15.53;8.03;;;4.20;99.90;;;;;;4967546;28;21058;-68
2023/12/31 03:49:55;;;;;;;15.13;7.50;;;4.20;99.90;;;;;;4970615;28;20455;-67
2023/12/31 03:52:23;;;;;;;15.50;8.17;;;4.20;99.90;;;;;;4967667;28;20464;-68
2023/12/31 03:54:52;;;;;;;16.10;7.53;;;4.20;99.90;;;;;;4967799;28;21127;-67
2023/12/31 03:57:20;;;;;;;14.20;6.97;;;4.40;99.90;;;;;;4964884;28;20465;-68
2023/12/31 03:59:48;;;;;;;13.93;6.67;;;4.50;99.90;;;;;;4968196;28;20592;-69
2023/12/31 04:02:17;;;;;;;15.03;6.37;;;4.60;99.90;;;;;;4983054;28;20988;-68
2023/12/31 04:04:45;;;;;;;13.30;6.07;;;4.70;99.90;;;;;;4980087;28;20470;-69
2023/12/31 04:07:13;;;;;;;12.93;6.53;;;4.80;99.90;;;;;;4973302;28;20463;-68
2023/12/31 04:09:41;;;;;;;11.43;5.47;;;4.90;99.90;;;;;;4979407;28;20471;-67
2023/12/31 04:12:11;;;;;;;12.27;5.33;;;5.00;99.90;;;;;;4976278;28;20541;-68
2023/12/31 04:14:38;;;;;;;13.80;6.30;;;5.00;99.90;;;;;;4962799;28;20456;-68
2023/12/31 04:17:06;;;;;;;13.30;6.47;;;5.10;99.90;;;;;;4966684;28;20581;-68
2023/12/31 04:19:34;;;;;;;12.70;5.00;;;5.00;99.90;;;;;;4966317;28;20525;-69
2023/12/31 04:22:02;;;;;;;15.37;6.57;;;4.90;99.90;;;;;;4966936;28;20465;-68
2023/12/31 04:24:30;;;;;;;10.80;5.00;;;5.00;99.90;;;;;;4961838;28;20482;-67
2023/12/31 04:26:58;;;;;;;13.17;4.90;;;4.90;99.90;;;;;;4969010;28;20497;-68
2023/12/31 04:29:27;;;;;;;14.30;5.43;;;4.90;99.90;;;;;;4967303;28;20936;-68
2023/12/31 04:31:55;;;;;;;13.20;4.80;;;4.80;99.90;;;;;;4969881;28;20550;-69
2023/12/31 04:34:24;;;;;;;13.27;5.13;;;4.70;99.90;;;;;;4966859;28;20478;-68
2023/12/31 04:36:52;;;;;;;12.27;5.10;;;4.80;99.90;;;;;;4972895;28;20540;-68
2023/12/31 04:39:20;;;;;;;12.80;5.77;;;4.80;99.90;;;;;;4966004;28;20587;-68
2023/12/31 04:41:48;;;;;;;11.10;4.60;;;4.70;99.90;;;;;;4966834;28;20565;-69
2023/12/31 04:44:16;;;;;;;13.77;5.63;;;4.90;99.90;;;;;;4966818;28;20880;-68
2023/12/31 04:46:45;;;;;;;10.23;4.40;;;4.90;99.90;;;;;;4963804;28;20453;-68
2023/12/31 04:49:14;;;;;;;10.67;4.33;;;4.90;99.90;;;;;;4966460;28;20549;-68
2023/12/31 04:51:43;;;;;;;13.53;4.73;;;5.00;99.90;;;;;;4965102;28;20463;-68
2023/12/31 04:54:11;;;;;;;9.80;4.37;;;5.00;99.90;;;;;;4966653;28;20504;-69
2023/12/31 04:56:39;;;;;;;11.87;4.40;;;5.00;99.90;;;;;;4966928;28;20451;-69
2023/12/31 04:59:07;;;;;;;11.53;5.10;;;5.10;99.90;;;;;;4967099;28;20493;-67
2023/12/31 05:01:35;;;;;;;10.63;4.03;;;5.10;99.90;;;;;;4966723;28;20478;-69
2023/12/31 05:04:05;;;;;;;10.97;4.47;;;5.10;99.90;;;;;;4958679;28;20911;-68
2023/12/31 05:06:32;;;;;;;10.53;4.43;;;5.10;99.90;;;;;;4966872;28;20450;-68
2023/12/31 05:09:03;;;;;;;11.33;4.73;;;5.10;99.90;;;;;;4967063;28;20566;-68
2023/12/31 05:11:31;;;;;;;12.13;4.30;;;5.10;99.90;;;;;;4966857;28;20513;-68
2023/12/31 05:13:58;;;;;;;9.73;3.50;;;5.10;99.90;;;;;;4966921;28;20456;-68
2023/12/31 05:16:31;;;;;;;11.30;4.50;;;5.10;99.90;;;;;;4966540;28;20546;-68
2023/12/31 05:19:00;;;;;;;11.50;4.37;;;5.10;99.90;;;;;;4966755;28;20612;-68
2023/12/31 05:21:30;;;;;;;11.20;4.07;;;5.10;99.90;;;;;;4966497;28;20886;-68
2023/12/31 05:23:58;;;;;;;9.27;3.50;;;5.10;99.90;;;;;;4966904;28;20456;-69
2023/12/31 05:26:26;;;;;;;11.93;4.30;;;5.10;99.90;;;;;;4966318;28;20461;-69
2023/12/31 05:28:54;;;;;;;9.90;3.93;;;5.10;99.90;;;;;;4967478;28;20468;-68
2023/12/31 05:31:22;;;;;;;10.60;3.87;;;5.10;99.90;;;;;;4972289;28;20563;-68
2023/12/31 05:33:50;;;;;;;10.00;3.77;;;5.00;99.90;;;;;;4986499;28;20456;-68
2023/12/31 05:36:18;;;;;;;9.83;3.47;;;5.10;99.90;;;;;;4977427;28;20465;-69
2023/12/31 05:38:47;;;;;;;12.60;3.50;;;5.20;99.90;;;;;;4984703;28;20470;-68
2023/12/31 05:41:15;;;;;;;9.37;3.90;;;5.20;99.90;;;;;;4978315;28;20997;-69
2023/12/31 05:43:43;;;;;;;9.73;3.73;;;5.20;99.90;;;;;;4969743;28;20476;-67
2023/12/31 05:46:11;;;;;;;10.00;3.67;;;5.10;99.90;;;;;;4969364;28;20511;-69
2023/12/31 05:48:39;;;;;;;8.80;3.43;;;5.30;99.90;;;;;;4969473;28;21000;-68
2023/12/31 05:51:08;;;;;;;11.27;5.00;;;5.30;99.90;;;;;;4969019;28;20586;-68
2023/12/31 05:53:35;;;;;;;9.07;3.20;;;5.20;99.90;;;;;;4969783;28;20702;-68
2023/12/31 05:56:05;;;;;;;9.87;3.60;;;5.30;99.90;;;;;;4969292;28;20472;-68
2023/12/31 05:58:33;;;;;;;10.13;4.20;;;5.10;99.90;;;;;;4969382;28;20453;-69
2023/12/31 06:01:02;;;;;;;9.10;3.80;;;5.20;99.90;;;;;;4968737;28;20500;-68
2023/12/31 06:03:30;;;;;;;11.17;4.03;;;5.20;99.90;;;;;;4968995;28;20505;-69
2023/12/31 06:05:57;;;;;;;9.77;3.47;;;5.20;99.90;;;;;;4968684;28;20479;-69
2023/12/31 06:08:25;;;;;;;13.20;3.57;;;5.30;99.90;;;;;;4965933;28;21318;-68
2023/12/31 06:10:54;;;;;;;9.73;3.63;;;5.30;99.90;;;;;;4960329;28;21001;-68
2023/12/31 06:13:23;;;;;;;11.33;3.80;;;5.30;99.90;;;;;;4969107;28;20485;-68
2023/12/31 06:15:52;;;;;;;10.23;3.37;;;5.30;99.90;;;;;;4970117;28;20477;-68
2023/12/31 06:18:20;;;;;;;9.80;3.50;;;5.30;99.90;;;;;;4969540;28;20565;-67
2023/12/31 06:20:48;;;;;;;11.80;3.33;;;5.30;99.90;;;;;;4965199;28;20521;-69
2023/12/31 06:23:16;;;;;;;8.97;3.27;;;5.20;99.90;;;;;;4984044;28;20489;-68
2023/12/31 06:25:44;;;;;;;10.50;3.70;;;5.30;99.90;;;;;;4975635;28;20478;-67
2023/12/31 06:28:13;;;;;;;9.23;3.23;;;5.30;99.90;;;;;;4970615;28;20451;-68
2023/12/31 06:30:42;;;;;;;11.40;3.97;;;5.40;99.90;;;;;;4986302;28;20472;-68
2023/12/31 06:33:10;;;;;;;8.77;3.43;;;5.50;99.90;;;;;;4969336;28;20455;-68
2023/12/31 06:35:39;;;;;;;9.17;3.33;;;5.50;99.90;;;;;;4975767;28;20489;-69
2023/12/31 06:38:06;;;;;;;10.37;3.40;;;5.50;99.90;;;;;;4973454;28;20500;-67
2023/12/31 06:40:34;;;;;;;11.27;3.90;;;5.60;99.90;;;;;;4976504;28;20566;-68
2023/12/31 06:43:02;;;;;;;10.10;3.93;;;5.60;99.90;;;;;;4980942;28;20528;-69
2023/12/31 06:45:30;;;;;;;11.97;3.90;;;5.50;99.90;;;;;;4968450;28;20452;-68
2023/12/31 06:48:00;;;;;;;9.70;4.10;;;5.50;99.90;;;;;;4967126;28;20453;-68
2023/12/31 06:50:28;;;;;;;12.10;4.07;;;5.50;99.90;;;;;;4986462;28;20923;-69
2023/12/31 06:52:56;;;;;;;12.97;4.00;;;5.50;99.90;;;;;;4973975;28;20508;-69
2023/12/31 06:55:24;;;;;;;10.43;3.60;;;5.40;99.90;;;;;;4968645;28;21134;-68
2023/12/31 06:57:52;;;;;;;11.07;3.77;;;5.40;99.90;;;;;;4961361;28;20450;-68
2023/12/31 07:00:22;;;;;;;11.33;4.20;;;5.50;99.90;;;;;;4963465;28;20490;-67
2023/12/31 07:02:50;;;;;;;10.03;4.33;;;5.60;99.90;;;;;;4987241;28;20460;-68
2023/12/31 07:05:19;;;;;;;9.77;3.83;;;5.70;99.90;;;;;;4987179;28;20443;-68
2023/12/31 07:07:47;;;;;;;9.90;3.77;;;5.60;99.90;;;;;;4983891;28;20506;-68
2023/12/31 07:10:15;;;;;;;10.60;3.60;;;5.60;99.90;;;;;;4986302;28;20456;-69
2023/12/31 07:12:44;;;;;;;8.63;3.60;;;5.80;99.90;;;;;;4967861;28;20498;-68
2023/12/31 07:15:12;;;;;;;9.40;3.70;;;5.70;99.90;;;;;;4968378;28;20553;-69
2023/12/31 07:17:39;;;;;;;9.53;3.93;;;5.80;99.90;;;;;;4964149;28;20463;-69
2023/12/31 07:20:08;;;;;;;9.73;3.67;;;5.80;99.90;;;;;;4956560;28;20851;-69
2023/12/31 07:22:38;;;;;;;11.47;3.90;;;5.80;99.90;;;;;;4960462;28;20459;-69
2023/12/31 07:25:07;;;;;;;9.73;3.67;;;5.90;99.90;;;;;;4968395;28;20461;-69
2023/12/31 07:27:35;;;;;;;9.90;4.00;;;5.90;99.90;;;;;;4968130;28;20481;-68
2023/12/31 07:30:04;;;;;;;10.13;4.00;;;5.90;99.90;;;;;;4966050;28;20449;-68
2023/12/31 07:32:32;;;;;;;13.33;4.70;;;5.80;99.90;;;;;;4967852;28;20454;-68
2023/12/31 07:35:00;;;;;;;11.63;4.67;;;5.90;99.90;;;;;;4967959;28;20461;-69
2023/12/31 07:37:28;;;;;;;10.20;4.57;;;5.80;99.90;;;;;;4967746;28;20475;-69
2023/12/31 07:39:58;;;;;;;8.90;3.77;;;5.80;99.90;;;;;;4967365;28;20538;-69
2023/12/31 07:42:30;;;;;;;10.70;4.40;;;5.80;99.90;;;;;;4964841;28;20539;-68
2023/12/31 07:44:58;;;;;;;10.50;3.67;;;5.90;99.90;;;;;;4958537;28;20907;-68
2023/12/31 07:47:26;;;;;;;14.10;4.27;;;5.90;99.90;;;;;;4958341;28;21009;-69
2023/12/31 07:49:56;;;;;;;11.30;4.40;;;5.80;99.90;;;;;;4958042;28;20816;-69
2023/12/31 07:52:25;;;;;;;11.00;3.60;;;5.80;99.90;;;;;;4966266;28;21177;-68
2023/12/31 07:54:53;;;;;;;12.63;3.87;;;5.90;99.90;;;;;;4967317;28;20476;-68
2023/12/31 07:57:22;;;;;;;10.07;3.80;;;5.90;99.90;;;;;;4960307;28;20485;-68
2023/12/31 07:59:50;;;;;;;9.87;4.20;;;6.00;99.90;;;;;;4966855;28;20513;-69
2023/12/31 08:02:18;;;;;;;10.13;3.43;;;6.10;99.90;;;;;;4967074;28;20537;-67
2023/12/31 08:04:46;;;;;;;8.60;3.43;;;6.00;99.90;;;;;;4967255;28;20475;-69
2023/12/31 08:07:14;;;;;;;12.17;3.77;;;6.00;99.90;;;;;;4968867;28;20577;-69
2023/12/31 08:09:42;;;;;;;9.23;3.20;;;6.10;99.90;;;;;;4982819;28;20455;-68
2023/12/31 08:12:09;;;;;;;8.97;3.50;;;6.20;99.90;;;;;;4982194;28;20473;-68
2023/12/31 08:14:39;;;;;;;10.00;3.00;;;6.10;99.90;;;;;;4975267;28;20905;-68
2023/12/31 08:17:07;;;;;;;9.87;3.47;;;6.10;99.90;;;;;;4980948;28;20443;-67
2023/12/31 08:19:34;;;;;;;9.53;3.33;;;6.20;99.90;;;;;;4975376;28;20451;-68
2023/12/31 08:22:03;;;;;;;9.17;3.60;;;6.30;99.90;;;;;;4966954;28;20574;-68
2023/12/31 08:24:31;;;;;;;10.73;3.40;;;6.40;99.90;;;;;;4967466;28;20474;-68
2023/12/31 08:26:59;;;;;;;9.07;3.03;;;6.30;99.90;;;;;;4965615;28;21044;-68
2023/12/31 08:29:27;;;;;;;11.10;3.47;;;6.50;99.90;;;;;;4967351;28;20456;-68
2023/12/31 08:31:56;;;;;;;9.50;3.17;;;6.60;99.90;;;;;;4962253;28;20526;-68
2023/12/31 08:34:24;;;;;;;7.60;2.27;;;6.70;99.90;;;;;;4967360;28;20457;-69
2023/12/31 08:36:53;;;;;;;9.17;3.00;;;6.80;99.90;;;;;;4967169;28;20460;-68
2023/12/31 08:39:21;;;;;;;8.67;2.57;;;6.80;99.90;;;;;;4965403;28;20452;-69
2023/12/31 08:41:49;;;;;;;9.40;2.50;;;6.90;99.90;;;;;;4966712;28;20498;-67
2023/12/31 08:44:17;;;;;;;8.90;2.60;;;6.90;99.90;;;;;;4966897;28;20494;-66
2023/12/31 08:46:45;;;;;;;8.00;2.57;;;7.10;99.90;;;;;;4966805;28;20926;-68
2023/12/31 08:49:14;;;;;;;8.60;2.20;;;7.20;99.90;;;;;;4960963;28;20511;-68
2023/12/31 08:51:42;;;;;;;8.23;2.20;;;7.30;99.90;;;;;;4970365;28;20525;-69
2023/12/31 08:54:10;;;;;;;8.57;3.10;;;7.30;99.90;;;;;;4970478;28;20483;-69
2023/12/31 08:56:38;;;;;;;7.57;1.93;;;7.40;99.90;;;;;;4966674;28;21003;-69
2023/12/31 08:59:07;;;;;;;8.33;2.00;;;7.50;99.90;;;;;;4959677;28;20554;-67
2023/12/31 09:01:35;;;;;;;8.10;2.07;;;7.70;99.90;;;;;;4965998;28;20584;-68
2023/12/31 09:04:03;;;;;;;8.37;2.60;;;7.70;99.90;;;;;;4968116;28;20459;-67
2023/12/31 09:06:32;;;;;;;7.67;2.30;;;7.80;99.90;;;;;;4970125;28;20479;-67
2023/12/31 09:09:00;;;;;;;7.60;2.30;;;7.80;99.90;;;;;;4968609;28;20559;-68
2023/12/31 09:11:28;;;;;;;8.30;2.20;;;8.00;99.90;;;;;;4969363;28;20542;-68
2023/12/31 09:13:56;;;;;;;9.10;1.97;;;7.90;99.90;;;;;;4970080;28;20484;-68
2023/12/31 09:16:24;;;;;;;8.80;2.10;;;8.00;99.90;;;;;;4969834;28;21109;-68
2023/12/31 09:18:52;;;;;;;7.90;2.10;;;8.10;99.90;;;;;;4970000;28;20499;-68
2023/12/31 09:21:20;;;;;;;8.70;2.10;;;8.10;99.90;;;;;;4969463;28;20495;-68
2023/12/31 09:23:49;;;;;;;7.43;2.00;;;8.20;99.90;;;;;;4966905;28;20963;-68
2023/12/31 09:26:17;;;;;;;9.00;2.83;;;8.20;99.90;;;;;;4967095;28;20474;-67
2023/12/31 09:28:45;;;;;;;8.40;1.80;;;8.20;99.90;;;;;;4966035;28;20478;-66
2023/12/31 09:31:13;;;;;;;7.43;1.97;;;8.30;99.90;;;;;;4982712;28;20596;-66
2023/12/31 09:33:41;;;;;;;7.90;2.23;;;8.40;99.90;;;;;;4986534;28;21211;-68
2023/12/31 09:36:10;;;;;;;8.03;2.90;;;8.40;99.90;;;;;;4974044;28;20526;-68
2023/12/31 09:38:43;;;;;;;8.37;2.53;;;8.40;99.90;;;;;;4984027;28;20451;-68
2023/12/31 09:41:21;;;;;;;8.27;2.93;;;8.40;99.90;;;;;;4968343;28;20488;-68
2023/12/31 09:43:52;;;;;;;7.53;2.40;;;8.40;99.90;;;;;;4965989;28;20457;-68
2023/12/31 09:46:21;;;;;;;9.40;2.67;;;8.40;99.90;;;;;;4986466;28;20534;-70
2023/12/31 09:48:50;;;;;;;7.60;2.37;;;8.40;99.90;;;;;;4976347;28;20456;-68
2023/12/31 09:51:19;;;;;;;8.90;3.00;;;8.40;99.90;;;;;;4969244;28;20467;-69
2023/12/31 09:53:48;;;;;;;8.60;3.00;;;8.40;99.90;;;;;;4969544;28;20456;-68
2023/12/31 09:56:18;;;;;;;8.10;2.40;;;8.50;99.90;;;;;;4971447;28;20447;-68
2023/12/31 09:58:48;;;;;;;8.10;2.53;;;8.70;99.90;;;;;;4969392;28;20538;-69
2023/12/31 10:01:31;;;;;;;7.83;2.33;;;8.70;99.90;;;;;;4969334;28;20848;-70
2023/12/31 10:03:59;;;;;;;9.60;2.93;;;8.90;99.90;;;;;;4969528;28;20456;-69
2023/12/31 10:06:28;;;;;;;8.40;2.33;;;9.00;99.90;;;;;;4969245;28;20576;-69
2023/12/31 10:08:58;;;;;;;8.47;2.90;;;9.20;99.90;;;;;;4969025;28;20465;-69
2023/12/31 10:11:27;;;;;;;7.97;2.50;;;9.40;99.90;;;;;;4968555;28;20537;-69
2023/12/31 10:13:55;;;;;;;7.40;1.90;;;9.40;99.90;;;;;;4950471;28;20477;-68
2023/12/31 10:16:23;;;;;;;7.97;2.07;;;9.50;99.90;;;;;;4968881;28;20456;-68
2023/12/31 10:18:51;;;;;;;7.27;2.20;;;9.40;99.90;;;;;;4967582;28;20458;-69
2023/12/31 10:21:19;;;;;;;7.70;2.23;;;9.50;99.90;;;;;;4966735;28;20565;-66
2023/12/31 10:23:47;;;;;;;8.10;2.80;;;9.50;99.90;;;;;;4968224;28;20458;-68
2023/12/31 10:26:18;;;;;;;7.50;2.50;;;9.40;99.90;;;;;;4968321;28;21223;-67
2023/12/31 10:28:47;;;;;;;7.57;2.23;;;9.30;99.90;;;;;;4957494;28;20474;-68
2023/12/31 10:31:16;;;;;;;7.90;2.33;;;9.30;99.90;;;;;;4968160;28;20978;-67
2023/12/31 10:33:44;;;;;;;7.90;2.33;;;9.20;99.90;;;;;;4969171;28;20955;-68
2023/12/31 10:36:12;;;;;;;7.70;2.53;;;9.10;99.90;;;;;;4968822;28;20446;-69
2023/12/31 10:38:47;;;;;;;9.23;2.80;;;9.20;99.90;;;;;;4968321;28;20447;-67
2023/12/31 10:41:20;;;;;;;7.67;2.57;;;9.30;99.90;;;;;;4975332;28;20459;-70
2023/12/31 10:43:50;;;;;;;9.10;2.63;;;9.40;99.90;;;;;;4982163;28;20442;-69
2023/12/31 10:46:19;;;;;;;7.83;2.40;;;9.40;99.90;;;;;;4979656;28;20445;-69
2023/12/31 10:48:51;;;;;;;8.67;3.17;;;9.40;99.90;;;;;;4981460;28;20476;-68
2023/12/31 10:51:23;;;;;;;8.47;2.63;;;9.40;99.90;;;;;;4979462;28;20458;-67
2023/12/31 10:53:54;;;;;;;7.70;2.77;;;9.40;99.90;;;;;;4981207;28;21214;-68
2023/12/31 10:56:22;;;;;;;8.50;2.60;;;9.50;99.90;;;;;;4978914;28;20893;-69
2023/12/31 10:58:55;;;;;;;7.90;2.67;;;9.40;99.90;;;;;;4977714;28;20463;-68
2023/12/31 11:01:25;;;;;;;9.93;3.10;;;9.60;99.90;;;;;;4978462;28;20474;-68
2023/12/31 11:03:53;;;;;;;8.57;2.90;;;9.60;99.90;;;;;;4980936;28;20489;-67
2023/12/31 11:06:24;;;;;;;7.30;2.10;;;9.60;99.90;;;;;;4976536;28;20453;-73
2023/12/31 11:08:54;;;;;;;8.23;2.67;;;9.70;99.90;;;;;;4982287;28;20445;-68
2023/12/31 11:11:22;;;;;;;7.97;2.70;;;9.60;99.90;;;;;;4979024;28;20505;-67
2023/12/31 11:13:55;;;;;;;7.90;2.83;;;9.70;99.90;;;;;;4981160;28;20428;-68
2023/12/31 11:16:36;;;;;;;9.90;2.60;;;9.80;99.90;;;;;;4977332;28;20542;-67
2023/12/31 11:19:26;;;;;;;8.10;2.70;;;9.90;99.90;;;;;;4980366;28;20445;-68
2023/12/31 11:22:08;;;;;;;7.70;2.50;;;10.10;99.90;;;;;;4981646;28;20550;-67
2023/12/31 11:24:36;;;;;;;7.53;2.30;;;10.10;99.90;;;;;;4980057;28;20444;-69
2023/12/31 11:27:07;;;;;;;8.77;3.17;;;10.10;99.90;;;;;;4980490;28;20439;-67
2023/12/31 11:29:38;;;;;;;8.97;2.40;;;10.20;99.90;;;;;;4966787;28;20464;-68
2023/12/31 11:32:07;;;;;;;8.57;2.83;;;10.20;99.90;;;;;;4968965;28;20466;-69
2023/12/31 11:34:39;;;;;;;8.47;2.90;;;10.20;99.90;;;;;;4966550;28;20451;-67
2023/12/31 11:37:07;;;;;;;8.07;3.03;;;10.20;99.90;;;;;;4974089;28;20490;-68
2023/12/31 11:39:35;;;;;;;8.00;2.70;;;10.30;99.90;;;;;;4970257;28;20526;-67
2023/12/31 11:42:10;;;;;;;7.43;2.80;;;10.10;99.90;;;;;;4970545;28;20505;-67
2023/12/31 11:44:41;;;;;;;9.50;3.10;;;9.80;99.90;;;;;;4969829;28;20453;-67
2023/12/31 11:47:15;;;;;;;8.00;2.20;;;9.50;99.90;;;;;;4982618;28;20435;-68
2023/12/31 11:49:47;;;;;;;9.70;2.60;;;9.20;99.90;;;;;;4973159;28;20504;-67
2023/12/31 11:52:15;;;;;;;11.43;2.50;;;9.00;99.90;;;;;;4967858;28;21104;-68
2023/12/31 11:54:44;;;;;;;7.00;1.33;;;8.70;99.90;;;;;;4980207;28;20861;-67
2023/12/31 11:57:13;;;;;;;8.40;1.70;;;8.30;99.90;;;;;;4981717;28;20446;-68
2023/12/31 11:59:45;;;;;;;8.37;1.70;;;8.20;99.90;;;;;;4971267;28;20505;-68
2023/12/31 12:02:14;;;;;;;7.10;1.70;;;8.10;99.90;;;;;;4966225;28;21041;-69
2023/12/31 12:04:42;;;;;;;7.13;1.80;;;8.10;99.90;;;;;;4975336;28;20442;-68
2023/12/31 12:07:10;;;;;;;6.40;1.20;;;8.10;99.90;;;;;;4971560;28;20501;-69
2023/12/31 12:09:38;;;;;;;8.20;1.50;;;8.10;99.90;;;;;;4971827;28;20894;-69
2023/12/31 12:12:08;;;;;;;7.93;1.60;;;8.10;99.90;;;;;;4974473;28;20852;-69
2023/12/31 12:14:36;;;;;;;7.67;1.50;;;8.10;99.90;;;;;;4976782;28;20451;-69
2023/12/31 12:17:05;;;;;;;7.33;1.47;;;8.10;99.90;;;;;;4971535;28;20455;-69
2023/12/31 12:19:34;;;;;;;7.20;1.40;;;8.00;99.90;;;;;;4966987;28;20462;-70
2023/12/31 12:22:03;;;;;;;6.33;1.00;;;8.00;99.90;;;;;;4973653;28;20550;-68
2023/12/31 12:24:31;;;;;;;6.93;1.57;;;7.90;99.90;;;;;;4968313;28;20482;-69
2023/12/31 12:27:01;;;;;;;6.73;1.33;;;7.90;99.90;;;;;;4972242;28;20493;-67
2023/12/31 12:29:34;;;;;;;8.40;1.50;;;7.80;99.90;;;;;;4964002;28;20451;-69
2023/12/31 12:32:04;;;;;;;6.60;1.00;;;7.80;99.90;;;;;;4963744;28;20474;-68
2023/12/31 12:34:33;;;;;;;7.10;0.97;;;7.80;99.90;;;;;;4963768;28;20440;-69
2023/12/31 12:37:03;;;;;;;8.27;1.20;;;7.80;99.90;;;;;;4961941;28;20451;-70
2023/12/31 12:39:31;;;;;;;6.30;0.80;;;7.80;99.90;;;;;;4975814;28;20536;-68
2023/12/31 12:42:01;;;;;;;6.50;0.90;;;7.90;99.90;;;;;;4962868;28;20995;-68
2023/12/31 12:44:29;;;;;;;6.57;1.17;;;7.80;99.90;;;;;;4973624;28;20482;-69
2023/12/31 12:46:57;;;;;;;8.47;1.00;;;7.80;99.90;;;;;;4974743;28;20446;-67
2023/12/31 12:49:25;;;;;;;6.33;0.77;;;7.80;99.90;;;;;;4973747;28;20823;-68
2023/12/31 12:51:55;;;;;;;6.50;0.80;;;7.90;99.90;;;;;;4971240;28;20469;-68
2023/12/31 12:54:23;;;;;;;6.70;0.80;;;7.90;99.90;;;;;;4972400;28;20830;-68
2023/12/31 12:56:53;;;;;;;6.00;0.60;;;7.90;99.90;;;;;;4974453;28;21220;-68
2023/12/31 12:59:21;;;;;;;7.40;0.97;;;7.90;99.90;;;;;;4973104;28;20527;-68